sensor_id;sensor_type;location;lat;lon;timestamp;P1;durP1;ratioP1;P2;durP2;ratioP2
19883;SDS011;10104;50.732;10.174;2022-08-21T00:01:05;6.38;;;3.47;;
19883;SDS011;10104;50.732;10.174;2022-08-21T00:03:30;4.13;;;3.70;;
19883;SDS011;10104;50.732;10.174;2022-08-21T00:05:52;4.00;;;3.33;;
19883;SDS011;10104;50.732;10.174;2022-08-21T00:08:14;3.33;;;3.03;;
19883;SDS011;10104;50.732;10.174;2022-08-21T00:10:36;4.13;;;3.73;;
19883;SDS011;10104;50.732;10.174;2022-08-21T00:12:59;4.90;;;4.50;;
19883;SDS011;10104;50.732;10.174;2022-08-21T00:15:23;3.75;;;3.45;;
19883;SDS011;10104;50.732;10.174;2022-08-21T00:17:50;4.67;;;3.77;;
19883;SDS011;10104;50.732;10.174;2022-08-21T00:20:12;6.23;;;3.90;;
19883;SDS011;10104;50.732;10.174;2022-08-21T00:22:36;4.20;;;3.80;;
19883;SDS011;10104;50.732;10.174;2022-08-21T00:24:57;4.37;;;3.80;;
19883;SDS011;10104;50.732;10.174;2022-08-21T00:27:19;4.73;;;4.10;;
19883;SDS011;10104;50.732;10.174;2022-08-21T00:29:40;3.87;;;3.50;;
19883;SDS011;10104;50.732;10.174;2022-08-21T00:32:02;4.07;;;3.70;;
19883;SDS011;10104;50.732;10.174;2022-08-21T00:34:24;5.23;;;3.93;;
19883;SDS011;10104;50.732;10.174;2022-08-21T00:36:45;4.13;;;3.80;;
19883;SDS011;10104;50.732;10.174;2022-08-21T00:39:07;3.83;;;3.53;;
19883;SDS011;10104;50.732;10.174;2022-08-21T00:41:29;4.00;;;3.60;;
19883;SDS011;10104;50.732;10.174;2022-08-21T00:43:59;4.40;;;4.00;;
19883;SDS011;10104;50.732;10.174;2022-08-21T00:46:20;3.90;;;3.60;;
19883;SDS011;10104;50.732;10.174;2022-08-21T00:48:48;4.43;;;4.03;;
19883;SDS011;10104;50.732;10.174;2022-08-21T00:51:11;4.27;;;3.87;;
19883;SDS011;10104;50.732;10.174;2022-08-21T00:53:37;4.43;;;3.70;;
19883;SDS011;10104;50.732;10.174;2022-08-21T00:56:02;5.77;;;3.83;;
19883;SDS011;10104;50.732;10.174;2022-08-21T00:58:26;4.00;;;3.43;;
19883;SDS011;10104;50.732;10.174;2022-08-21T01:00:51;5.37;;;4.50;;
19883;SDS011;10104;50.732;10.174;2022-08-21T01:03:15;4.60;;;4.10;;
19883;SDS011;10104;50.732;10.174;2022-08-21T01:05:44;4.50;;;4.10;;
19883;SDS011;10104;50.732;10.174;2022-08-21T01:08:08;4.67;;;4.23;;
19883;SDS011;10104;50.732;10.174;2022-08-21T01:10:30;4.17;;;3.77;;
19883;SDS011;10104;50.732;10.174;2022-08-21T01:12:54;4.00;;;3.60;;
19883;SDS011;10104;50.732;10.174;2022-08-21T01:15:17;4.20;;;3.80;;
19883;SDS011;10104;50.732;10.174;2022-08-21T01:17:41;4.23;;;3.83;;
19883;SDS011;10104;50.732;10.174;2022-08-21T01:20:04;6.10;;;4.20;;
19883;SDS011;10104;50.732;10.174;2022-08-21T01:22:27;3.77;;;3.47;;
19883;SDS011;10104;50.732;10.174;2022-08-21T01:24:49;4.60;;;4.10;;
19883;SDS011;10104;50.732;10.174;2022-08-21T01:27:11;3.90;;;3.50;;
19883;SDS011;10104;50.732;10.174;2022-08-21T01:29:38;4.30;;;3.90;;
19883;SDS011;10104;50.732;10.174;2022-08-21T01:32:16;4.60;;;4.20;;
19883;SDS011;10104;50.732;10.174;2022-08-21T01:34:40;4.10;;;3.70;;
19883;SDS011;10104;50.732;10.174;2022-08-21T01:37:04;5.13;;;3.40;;
19883;SDS011;10104;50.732;10.174;2022-08-21T01:39:26;4.20;;;3.80;;
19883;SDS011;10104;50.732;10.174;2022-08-21T01:41:47;5.07;;;4.30;;
19883;SDS011;10104;50.732;10.174;2022-08-21T01:44:09;4.20;;;3.80;;
19883;SDS011;10104;50.732;10.174;2022-08-21T01:46:30;3.93;;;3.53;;
19883;SDS011;10104;50.732;10.174;2022-08-21T01:48:52;5.13;;;3.57;;
19883;SDS011;10104;50.732;10.174;2022-08-21T01:51:14;3.90;;;3.30;;
19883;SDS011;10104;50.732;10.174;2022-08-21T01:53:35;5.00;;;3.70;;
19883;SDS011;10104;50.732;10.174;2022-08-21T01:55:57;4.03;;;3.53;;
19883;SDS011;10104;50.732;10.174;2022-08-21T01:58:19;4.03;;;3.40;;
19883;SDS011;10104;50.732;10.174;2022-08-21T02:00:40;3.90;;;3.50;;
19883;SDS011;10104;50.732;10.174;2022-08-21T02:03:03;4.90;;;3.90;;
19883;SDS011;10104;50.732;10.174;2022-08-21T02:05:24;4.07;;;3.67;;
19883;SDS011;10104;50.732;10.174;2022-08-21T02:07:50;4.77;;;4.10;;
19883;SDS011;10104;50.732;10.174;2022-08-21T02:10:15;4.50;;;4.10;;
19883;SDS011;10104;50.732;10.174;2022-08-21T02:12:38;4.13;;;3.73;;
19883;SDS011;10104;50.732;10.174;2022-08-21T02:15:00;4.40;;;3.60;;
19883;SDS011;10104;50.732;10.174;2022-08-21T02:17:22;5.40;;;3.77;;
19883;SDS011;10104;50.732;10.174;2022-08-21T02:19:44;5.90;;;3.80;;
19883;SDS011;10104;50.732;10.174;2022-08-21T02:25:41;4.43;;;4.03;;
19883;SDS011;10104;50.732;10.174;2022-08-21T02:28:05;5.63;;;4.40;;
19883;SDS011;10104;50.732;10.174;2022-08-21T02:30:32;10.17;;;3.80;;
19883;SDS011;10104;50.732;10.174;2022-08-21T02:32:56;4.67;;;4.03;;
19883;SDS011;10104;50.732;10.174;2022-08-21T02:35:19;4.87;;;4.37;;
19883;SDS011;10104;50.732;10.174;2022-08-21T02:37:45;4.00;;;3.60;;
19883;SDS011;10104;50.732;10.174;2022-08-21T02:40:10;4.93;;;4.23;;
19883;SDS011;10104;50.732;10.174;2022-08-21T02:42:32;4.40;;;4.00;;
19883;SDS011;10104;50.732;10.174;2022-08-21T02:44:54;4.90;;;3.87;;
19883;SDS011;10104;50.732;10.174;2022-08-21T02:47:15;5.33;;;4.10;;
19883;SDS011;10104;50.732;10.174;2022-08-21T02:49:37;3.30;;;3.00;;
19883;SDS011;10104;50.732;10.174;2022-08-21T02:51:58;6.80;;;3.70;;
19883;SDS011;10104;50.732;10.174;2022-08-21T02:54:20;4.20;;;3.80;;
19883;SDS011;10104;50.732;10.174;2022-08-21T02:56:42;3.73;;;3.43;;
19883;SDS011;10104;50.732;10.174;2022-08-21T02:59:03;5.90;;;3.90;;
19883;SDS011;10104;50.732;10.174;2022-08-21T03:01:25;4.73;;;3.63;;
19883;SDS011;10104;50.732;10.174;2022-08-21T03:03:47;3.87;;;3.47;;
19883;SDS011;10104;50.732;10.174;2022-08-21T03:06:13;4.10;;;3.70;;
19883;SDS011;10104;50.732;10.174;2022-08-21T03:08:36;4.13;;;3.73;;
19883;SDS011;10104;50.732;10.174;2022-08-21T03:10:58;4.77;;;3.73;;
19883;SDS011;10104;50.732;10.174;2022-08-21T03:13:22;5.23;;;3.83;;
19883;SDS011;10104;50.732;10.174;2022-08-21T03:15:43;4.33;;;3.90;;
19883;SDS011;10104;50.732;10.174;2022-08-21T03:18:05;7.53;;;4.07;;
19883;SDS011;10104;50.732;10.174;2022-08-21T03:20:28;4.07;;;3.63;;
19883;SDS011;10104;50.732;10.174;2022-08-21T03:22:50;4.40;;;4.00;;
19883;SDS011;10104;50.732;10.174;2022-08-21T03:25:13;10.47;;;6.10;;
19883;SDS011;10104;50.732;10.174;2022-08-21T03:27:35;6.87;;;4.50;;
19883;SDS011;10104;50.732;10.174;2022-08-21T03:29:59;5.13;;;4.63;;
19883;SDS011;10104;50.732;10.174;2022-08-21T03:32:22;7.63;;;4.90;;
19883;SDS011;10104;50.732;10.174;2022-08-21T03:34:44;6.20;;;4.90;;
19883;SDS011;10104;50.732;10.174;2022-08-21T03:37:06;5.20;;;4.70;;
19883;SDS011;10104;50.732;10.174;2022-08-21T03:39:28;5.73;;;5.23;;
19883;SDS011;10104;50.732;10.174;2022-08-21T03:41:50;5.37;;;4.83;;
19883;SDS011;10104;50.732;10.174;2022-08-21T03:44:12;5.47;;;4.83;;
19883;SDS011;10104;50.732;10.174;2022-08-21T03:46:34;6.63;;;4.87;;
19883;SDS011;10104;50.732;10.174;2022-08-21T03:48:55;8.70;;;5.77;;
19883;SDS011;10104;50.732;10.174;2022-08-21T03:51:17;7.17;;;4.90;;
19883;SDS011;10104;50.732;10.174;2022-08-21T03:53:38;5.40;;;4.53;;
19883;SDS011;10104;50.732;10.174;2022-08-21T03:56:00;5.47;;;4.97;;
19883;SDS011;10104;50.732;10.174;2022-08-21T03:58:23;13.03;;;6.97;;
19883;SDS011;10104;50.732;10.174;2022-08-21T04:00:46;7.37;;;5.80;;
19883;SDS011;10104;50.732;10.174;2022-08-21T04:03:09;7.43;;;5.93;;
19883;SDS011;10104;50.732;10.174;2022-08-21T04:05:31;7.87;;;6.30;;
19883;SDS011;10104;50.732;10.174;2022-08-21T04:07:59;7.20;;;6.43;;
19883;SDS011;10104;50.732;10.174;2022-08-21T04:10:24;7.10;;;6.40;;
19883;SDS011;10104;50.732;10.174;2022-08-21T04:12:47;8.10;;;6.37;;
19883;SDS011;10104;50.732;10.174;2022-08-21T04:15:08;9.17;;;7.43;;
19883;SDS011;10104;50.732;10.174;2022-08-21T04:17:30;12.43;;;7.23;;
19883;SDS011;10104;50.732;10.174;2022-08-21T04:19:52;8.37;;;6.83;;
19883;SDS011;10104;50.732;10.174;2022-08-21T04:22:14;8.87;;;7.40;;
19883;SDS011;10104;50.732;10.174;2022-08-21T04:24:36;11.43;;;8.10;;
19883;SDS011;10104;50.732;10.174;2022-08-21T04:26:58;47.47;;;8.63;;
19883;SDS011;10104;50.732;10.174;2022-08-21T04:29:19;11.20;;;7.77;;
19883;SDS011;10104;50.732;10.174;2022-08-21T04:31:41;9.77;;;7.33;;
19883;SDS011;10104;50.732;10.174;2022-08-21T04:34:04;11.23;;;8.47;;
19883;SDS011;10104;50.732;10.174;2022-08-21T04:36:26;10.80;;;8.13;;
19883;SDS011;10104;50.732;10.174;2022-08-21T04:38:47;15.20;;;7.53;;
19883;SDS011;10104;50.732;10.174;2022-08-21T04:41:09;9.20;;;7.30;;
19883;SDS011;10104;50.732;10.174;2022-08-21T04:43:30;8.43;;;7.03;;
19883;SDS011;10104;50.732;10.174;2022-08-21T04:45:52;13.40;;;8.27;;
19883;SDS011;10104;50.732;10.174;2022-08-21T04:48:14;10.80;;;9.10;;
19883;SDS011;10104;50.732;10.174;2022-08-21T04:53:22;28.03;;;8.70;;
19883;SDS011;10104;50.732;10.174;2022-08-21T04:55:47;26.33;;;8.73;;
19883;SDS011;10104;50.732;10.174;2022-08-21T04:58:11;81.47;;;11.03;;
19883;SDS011;10104;50.732;10.174;2022-08-21T05:00:35;10.60;;;8.63;;
19883;SDS011;10104;50.732;10.174;2022-08-21T05:02:58;16.10;;;8.93;;
19883;SDS011;10104;50.732;10.174;2022-08-21T05:05:22;20.20;;;8.30;;
19883;SDS011;10104;50.732;10.174;2022-08-21T05:07:44;12.90;;;8.57;;
19883;SDS011;10104;50.732;10.174;2022-08-21T05:10:06;13.27;;;8.87;;
19883;SDS011;10104;50.732;10.174;2022-08-21T05:12:30;12.17;;;8.13;;
19883;SDS011;10104;50.732;10.174;2022-08-21T05:14:52;11.93;;;9.00;;
19883;SDS011;10104;50.732;10.174;2022-08-21T05:17:14;9.00;;;8.07;;
19883;SDS011;10104;50.732;10.174;2022-08-21T05:19:35;22.07;;;9.33;;
19883;SDS011;10104;50.732;10.174;2022-08-21T05:21:57;49.70;;;8.13;;
19883;SDS011;10104;50.732;10.174;2022-08-21T05:24:19;64.83;;;9.57;;
19883;SDS011;10104;50.732;10.174;2022-08-21T05:26:40;93.13;;;10.13;;
19883;SDS011;10104;50.732;10.174;2022-08-21T05:29:06;19.10;;;8.47;;
19883;SDS011;10104;50.732;10.174;2022-08-21T05:31:33;10.53;;;8.20;;
19883;SDS011;10104;50.732;10.174;2022-08-21T05:33:54;20.47;;;8.27;;
19883;SDS011;10104;50.732;10.174;2022-08-21T05:36:17;9.57;;;8.17;;
19883;SDS011;10104;50.732;10.174;2022-08-21T05:38:39;10.50;;;8.10;;
19883;SDS011;10104;50.732;10.174;2022-08-21T05:41:01;25.07;;;9.27;;
19883;SDS011;10104;50.732;10.174;2022-08-21T05:43:23;9.47;;;8.57;;
19883;SDS011;10104;50.732;10.174;2022-08-21T05:45:44;9.83;;;7.93;;
19883;SDS011;10104;50.732;10.174;2022-08-21T05:48:07;34.00;;;8.93;;
19883;SDS011;10104;50.732;10.174;2022-08-21T05:50:29;12.53;;;7.70;;
19883;SDS011;10104;50.732;10.174;2022-08-21T05:52:53;13.90;;;8.67;;
19883;SDS011;10104;50.732;10.174;2022-08-21T05:55:27;8.10;;;7.30;;
19883;SDS011;10104;50.732;10.174;2022-08-21T05:57:54;8.17;;;7.23;;
19883;SDS011;10104;50.732;10.174;2022-08-21T06:00:15;7.00;;;6.30;;
19883;SDS011;10104;50.732;10.174;2022-08-21T06:02:39;6.40;;;5.80;;
19883;SDS011;10104;50.732;10.174;2022-08-21T06:05:02;8.10;;;6.13;;
19883;SDS011;10104;50.732;10.174;2022-08-21T06:07:24;6.33;;;5.83;;
19883;SDS011;10104;50.732;10.174;2022-08-21T06:09:45;6.73;;;6.13;;
19883;SDS011;10104;50.732;10.174;2022-08-21T06:12:07;7.03;;;6.33;;
19883;SDS011;10104;50.732;10.174;2022-08-21T06:14:31;6.60;;;5.93;;
19883;SDS011;10104;50.732;10.174;2022-08-21T06:16:52;6.13;;;5.27;;
19883;SDS011;10104;50.732;10.174;2022-08-21T06:19:14;6.77;;;5.33;;
19883;SDS011;10104;50.732;10.174;2022-08-21T06:21:35;7.60;;;6.90;;
19883;SDS011;10104;50.732;10.174;2022-08-21T06:23:57;6.77;;;6.17;;
19883;SDS011;10104;50.732;10.174;2022-08-21T06:26:19;6.17;;;5.57;;
19883;SDS011;10104;50.732;10.174;2022-08-21T06:28:41;6.83;;;6.23;;
19883;SDS011;10104;50.732;10.174;2022-08-21T06:31:11;8.07;;;6.40;;
19883;SDS011;10104;50.732;10.174;2022-08-21T06:36:31;7.37;;;6.27;;
19883;SDS011;10104;50.732;10.174;2022-08-21T06:38:53;8.73;;;7.20;;
19883;SDS011;10104;50.732;10.174;2022-08-21T06:41:17;9.60;;;6.47;;
19883;SDS011;10104;50.732;10.174;2022-08-21T06:43:46;7.53;;;6.72;;
19883;SDS011;10104;50.732;10.174;2022-08-21T06:46:08;8.73;;;6.78;;
19883;SDS011;10104;50.732;10.174;2022-08-21T06:48:29;9.02;;;8.13;;
19883;SDS011;10104;50.732;10.174;2022-08-21T06:50:53;8.05;;;7.32;;
19883;SDS011;10104;50.732;10.174;2022-08-21T06:53:16;7.68;;;6.97;;
19883;SDS011;10104;50.732;10.174;2022-08-21T06:55:40;10.15;;;7.95;;
19883;SDS011;10104;50.732;10.174;2022-08-21T06:58:03;12.55;;;8.85;;
19883;SDS011;10104;50.732;10.174;2022-08-21T07:00:25;9.75;;;7.78;;
19883;SDS011;10104;50.732;10.174;2022-08-21T07:02:47;10.05;;;8.45;;
19883;SDS011;10104;50.732;10.174;2022-08-21T07:05:09;12.07;;;8.75;;
19883;SDS011;10104;50.732;10.174;2022-08-21T07:07:38;9.02;;;8.05;;
19883;SDS011;10104;50.732;10.174;2022-08-21T07:10:00;10.20;;;7.85;;
19883;SDS011;10104;50.732;10.174;2022-08-21T07:12:21;11.50;;;8.05;;
19883;SDS011;10104;50.732;10.174;2022-08-21T07:14:43;9.80;;;7.93;;
19883;SDS011;10104;50.732;10.174;2022-08-21T07:17:05;11.25;;;7.50;;
19883;SDS011;10104;50.732;10.174;2022-08-21T07:19:27;10.05;;;7.68;;
19883;SDS011;10104;50.732;10.174;2022-08-21T07:21:48;9.50;;;7.55;;
19883;SDS011;10104;50.732;10.174;2022-08-21T07:24:10;10.70;;;6.75;;
19883;SDS011;10104;50.732;10.174;2022-08-21T07:26:31;10.32;;;8.13;;
19883;SDS011;10104;50.732;10.174;2022-08-21T07:28:53;10.32;;;7.40;;
19883;SDS011;10104;50.732;10.174;2022-08-21T07:31:15;9.68;;;7.35;;
19883;SDS011;10104;50.732;10.174;2022-08-21T07:33:40;9.20;;;7.13;;
19883;SDS011;10104;50.732;10.174;2022-08-21T07:36:02;11.00;;;8.18;;
19883;SDS011;10104;50.732;10.174;2022-08-21T07:38:24;8.80;;;7.18;;
19883;SDS011;10104;50.732;10.174;2022-08-21T07:40:46;10.52;;;6.78;;
19883;SDS011;10104;50.732;10.174;2022-08-21T07:43:09;9.05;;;6.93;;
19883;SDS011;10104;50.732;10.174;2022-08-21T07:45:32;7.90;;;6.47;;
19883;SDS011;10104;50.732;10.174;2022-08-21T07:47:53;10.20;;;6.50;;
19883;SDS011;10104;50.732;10.174;2022-08-21T07:50:18;6.82;;;6.13;;
19883;SDS011;10104;50.732;10.174;2022-08-21T07:52:40;9.50;;;6.10;;
19883;SDS011;10104;50.732;10.174;2022-08-21T07:55:03;7.30;;;6.18;;
19883;SDS011;10104;50.732;10.174;2022-08-21T07:57:27;7.88;;;5.88;;
19883;SDS011;10104;50.732;10.174;2022-08-21T07:59:48;8.70;;;5.97;;
19883;SDS011;10104;50.732;10.174;2022-08-21T08:02:09;7.03;;;5.38;;
19883;SDS011;10104;50.732;10.174;2022-08-21T08:04:31;7.38;;;5.72;;
19883;SDS011;10104;50.732;10.174;2022-08-21T08:06:53;9.18;;;5.70;;
19883;SDS011;10104;50.732;10.174;2022-08-21T08:09:14;10.00;;;5.65;;
19883;SDS011;10104;50.732;10.174;2022-08-21T08:11:36;7.68;;;4.97;;
19883;SDS011;10104;50.732;10.174;2022-08-21T08:14:01;9.02;;;5.10;;
19883;SDS011;10104;50.732;10.174;2022-08-21T08:16:25;6.47;;;4.70;;
19883;SDS011;10104;50.732;10.174;2022-08-21T08:18:47;6.22;;;4.53;;
19883;SDS011;10104;50.732;10.174;2022-08-21T08:21:09;6.70;;;4.53;;
19883;SDS011;10104;50.732;10.174;2022-08-21T08:23:31;10.48;;;5.18;;
19883;SDS011;10104;50.732;10.174;2022-08-21T08:25:53;6.85;;;4.50;;
19883;SDS011;10104;50.732;10.174;2022-08-21T08:28:15;8.95;;;4.53;;
19883;SDS011;10104;50.732;10.174;2022-08-21T08:30:38;8.63;;;5.05;;
19883;SDS011;10104;50.732;10.174;2022-08-21T08:33:00;10.00;;;3.40;;
19883;SDS011;10104;50.732;10.174;2022-08-21T08:35:22;7.30;;;3.97;;
19883;SDS011;10104;50.732;10.174;2022-08-21T08:37:44;8.25;;;3.95;;
19883;SDS011;10104;50.732;10.174;2022-08-21T08:40:14;5.80;;;3.50;;
19883;SDS011;10104;50.732;10.174;2022-08-21T08:42:41;6.63;;;2.90;;
19883;SDS011;10104;50.732;10.174;2022-08-21T08:45:08;7.07;;;3.25;;
19883;SDS011;10104;50.732;10.174;2022-08-21T08:47:31;6.38;;;2.92;;
19883;SDS011;10104;50.732;10.174;2022-08-21T08:49:58;8.40;;;3.40;;
19883;SDS011;10104;50.732;10.174;2022-08-21T08:52:31;8.13;;;2.95;;
19883;SDS011;10104;50.732;10.174;2022-08-21T08:55:02;10.77;;;3.50;;
19883;SDS011;10104;50.732;10.174;2022-08-21T08:57:30;7.72;;;3.00;;
19883;SDS011;10104;50.732;10.174;2022-08-21T08:59:56;7.47;;;2.80;;
19883;SDS011;10104;50.732;10.174;2022-08-21T09:02:22;6.40;;;2.85;;
19883;SDS011;10104;50.732;10.174;2022-08-21T09:04:47;8.05;;;2.97;;
19883;SDS011;10104;50.732;10.174;2022-08-21T09:07:12;8.00;;;3.50;;
19883;SDS011;10104;50.732;10.174;2022-08-21T09:09:49;8.73;;;3.60;;
19883;SDS011;10104;50.732;10.174;2022-08-21T09:13:24;7.55;;;2.90;;
19883;SDS011;10104;50.732;10.174;2022-08-21T09:18:04;8.20;;;4.18;;
19883;SDS011;10104;50.732;10.174;2022-08-21T09:26:26;7.53;;;3.45;;
19883;SDS011;10104;50.732;10.174;2022-08-21T09:28:52;9.30;;;3.83;;
19883;SDS011;10104;50.732;10.174;2022-08-21T09:31:33;8.95;;;4.00;;
19883;SDS011;10104;50.732;10.174;2022-08-21T09:36:35;11.23;;;4.72;;
19883;SDS011;10104;50.732;10.174;2022-08-21T09:39:06;7.38;;;4.30;;
19883;SDS011;10104;50.732;10.174;2022-08-21T09:41:29;8.60;;;4.43;;
19883;SDS011;10104;50.732;10.174;2022-08-21T09:43:52;9.20;;;3.95;;
19883;SDS011;10104;50.732;10.174;2022-08-21T09:46:22;9.48;;;3.55;;
19883;SDS011;10104;50.732;10.174;2022-08-21T09:48:49;7.72;;;3.67;;
19883;SDS011;10104;50.732;10.174;2022-08-21T09:51:17;6.63;;;3.45;;
19883;SDS011;10104;50.732;10.174;2022-08-21T09:53:51;10.13;;;4.20;;
19883;SDS011;10104;50.732;10.174;2022-08-21T09:56:17;5.53;;;3.75;;
19883;SDS011;10104;50.732;10.174;2022-08-21T09:59:00;7.22;;;4.10;;
19883;SDS011;10104;50.732;10.174;2022-08-21T10:01:23;9.02;;;3.75;;
19883;SDS011;10104;50.732;10.174;2022-08-21T10:03:46;7.28;;;3.80;;
19883;SDS011;10104;50.732;10.174;2022-08-21T10:06:09;8.75;;;3.92;;
19883;SDS011;10104;50.732;10.174;2022-08-21T10:08:40;8.93;;;3.83;;
19883;SDS011;10104;50.732;10.174;2022-08-21T10:11:05;7.60;;;3.33;;
19883;SDS011;10104;50.732;10.174;2022-08-21T10:18:45;6.70;;;3.38;;
19883;SDS011;10104;50.732;10.174;2022-08-21T10:21:18;8.25;;;3.45;;
19883;SDS011;10104;50.732;10.174;2022-08-21T10:26:35;7.10;;;3.55;;
19883;SDS011;10104;50.732;10.174;2022-08-21T10:31:52;6.15;;;2.95;;
19883;SDS011;10104;50.732;10.174;2022-08-21T10:37:38;4.85;;;2.83;;
19883;SDS011;10104;50.732;10.174;2022-08-21T10:40:09;4.50;;;2.67;;
19883;SDS011;10104;50.732;10.174;2022-08-21T10:42:57;5.75;;;2.65;;
19883;SDS011;10104;50.732;10.174;2022-08-21T10:48:28;8.02;;;3.00;;
19883;SDS011;10104;50.732;10.174;2022-08-21T10:51:04;6.57;;;3.60;;
19883;SDS011;10104;50.732;10.174;2022-08-21T10:54:19;8.00;;;3.28;;
19883;SDS011;10104;50.732;10.174;2022-08-21T10:56:30;7.25;;;2.90;;
19883;SDS011;10104;50.732;10.174;2022-08-21T11:01:24;7.05;;;2.70;;
19883;SDS011;10104;50.732;10.174;2022-08-21T11:03:52;6.00;;;2.50;;
19883;SDS011;10104;50.732;10.174;2022-08-21T11:06:31;6.68;;;2.53;;
19883;SDS011;10104;50.732;10.174;2022-08-21T11:14:36;6.25;;;2.47;;
19883;SDS011;10104;50.732;10.174;2022-08-21T11:17:11;4.32;;;2.67;;
19883;SDS011;10104;50.732;10.174;2022-08-21T11:19:42;6.43;;;2.78;;
19883;SDS011;10104;50.732;10.174;2022-08-21T11:24:42;6.68;;;3.10;;
19883;SDS011;10104;50.732;10.174;2022-08-21T11:29:59;8.45;;;2.40;;
19883;SDS011;10104;50.732;10.174;2022-08-21T11:41:02;10.85;;;2.90;;
19883;SDS011;10104;50.732;10.174;2022-08-21T11:43:38;5.60;;;3.08;;
19883;SDS011;10104;50.732;10.174;2022-08-21T11:48:40;6.07;;;2.70;;
19883;SDS011;10104;50.732;10.174;2022-08-21T11:51:10;5.95;;;2.80;;
19883;SDS011;10104;50.732;10.174;2022-08-21T11:53:43;5.20;;;2.72;;
19883;SDS011;10104;50.732;10.174;2022-08-21T11:56:16;4.65;;;2.50;;
19883;SDS011;10104;50.732;10.174;2022-08-21T11:58:54;5.60;;;2.63;;
19883;SDS011;10104;50.732;10.174;2022-08-21T12:01:32;5.97;;;2.58;;
19883;SDS011;10104;50.732;10.174;2022-08-21T12:04:02;6.25;;;2.60;;
19883;SDS011;10104;50.732;10.174;2022-08-21T12:06:31;4.85;;;2.63;;
19883;SDS011;10104;50.732;10.174;2022-08-21T12:09:04;8.77;;;2.67;;
19883;SDS011;10104;50.732;10.174;2022-08-21T12:11:28;6.55;;;2.83;;
19883;SDS011;10104;50.732;10.174;2022-08-21T12:13:53;4.43;;;2.88;;
19883;SDS011;10104;50.732;10.174;2022-08-21T12:16:28;5.68;;;2.60;;
19883;SDS011;10104;50.732;10.174;2022-08-21T12:19:09;7.53;;;2.65;;
19883;SDS011;10104;50.732;10.174;2022-08-21T12:21:58;7.07;;;2.67;;
19883;SDS011;10104;50.732;10.174;2022-08-21T12:26:49;5.15;;;2.75;;
19883;SDS011;10104;50.732;10.174;2022-08-21T12:32:04;5.65;;;2.58;;
19883;SDS011;10104;50.732;10.174;2022-08-21T12:34:50;7.68;;;2.60;;
19883;SDS011;10104;50.732;10.174;2022-08-21T12:39:51;3.58;;;2.30;;
19883;SDS011;10104;50.732;10.174;2022-08-21T12:44:46;4.00;;;2.13;;
19883;SDS011;10104;50.732;10.174;2022-08-21T12:47:14;4.47;;;2.60;;
19883;SDS011;10104;50.732;10.174;2022-08-21T12:49:52;4.25;;;2.20;;
19883;SDS011;10104;50.732;10.174;2022-08-21T12:52:27;6.88;;;2.15;;
19883;SDS011;10104;50.732;10.174;2022-08-21T12:54:57;4.72;;;2.30;;
19883;SDS011;10104;50.732;10.174;2022-08-21T12:57:23;5.75;;;2.70;;
19883;SDS011;10104;50.732;10.174;2022-08-21T12:59:51;4.93;;;2.45;;
19883;SDS011;10104;50.732;10.174;2022-08-21T13:02:19;4.35;;;2.65;;
19883;SDS011;10104;50.732;10.174;2022-08-21T13:04:44;3.50;;;1.98;;
19883;SDS011;10104;50.732;10.174;2022-08-21T13:07:08;5.22;;;2.30;;
19883;SDS011;10104;50.732;10.174;2022-08-21T13:09:33;5.65;;;2.38;;
19883;SDS011;10104;50.732;10.174;2022-08-21T13:11:54;3.97;;;2.50;;
19883;SDS011;10104;50.732;10.174;2022-08-21T13:14:37;5.30;;;2.42;;
19883;SDS011;10104;50.732;10.174;2022-08-21T13:17:07;3.30;;;2.50;;
19883;SDS011;10104;50.732;10.174;2022-08-21T13:19:31;3.30;;;2.40;;
19883;SDS011;10104;50.732;10.174;2022-08-21T13:21:53;5.07;;;2.40;;
19883;SDS011;10104;50.732;10.174;2022-08-21T13:24:18;4.57;;;2.28;;
19883;SDS011;10104;50.732;10.174;2022-08-21T13:27:03;4.50;;;2.33;;
19883;SDS011;10104;50.732;10.174;2022-08-21T13:29:36;4.53;;;2.47;;
19883;SDS011;10104;50.732;10.174;2022-08-21T13:32:02;5.07;;;2.70;;
19883;SDS011;10104;50.732;10.174;2022-08-21T13:34:32;3.97;;;2.58;;
19883;SDS011;10104;50.732;10.174;2022-08-21T13:37:04;3.53;;;2.40;;
19883;SDS011;10104;50.732;10.174;2022-08-21T13:39:28;4.00;;;2.60;;
19883;SDS011;10104;50.732;10.174;2022-08-21T13:41:50;5.97;;;2.38;;
19883;SDS011;10104;50.732;10.174;2022-08-21T13:46:42;4.35;;;2.47;;
19883;SDS011;10104;50.732;10.174;2022-08-21T13:49:05;4.68;;;2.63;;
19883;SDS011;10104;50.732;10.174;2022-08-21T13:51:28;4.70;;;2.35;;
19883;SDS011;10104;50.732;10.174;2022-08-21T13:53:50;5.97;;;2.83;;
19883;SDS011;10104;50.732;10.174;2022-08-21T13:58:46;7.38;;;2.92;;
19883;SDS011;10104;50.732;10.174;2022-08-21T14:01:17;5.80;;;2.97;;
19883;SDS011;10104;50.732;10.174;2022-08-21T14:03:42;4.68;;;2.70;;
19883;SDS011;10104;50.732;10.174;2022-08-21T14:06:14;4.30;;;2.83;;
19883;SDS011;10104;50.732;10.174;2022-08-21T14:08:38;3.30;;;2.65;;
19883;SDS011;10104;50.732;10.174;2022-08-21T14:11:03;4.05;;;2.88;;
19883;SDS011;10104;50.732;10.174;2022-08-21T14:13:48;7.60;;;2.67;;
19883;SDS011;10104;50.732;10.174;2022-08-21T14:16:21;5.43;;;2.72;;
19883;SDS011;10104;50.732;10.174;2022-08-21T14:21:27;5.47;;;2.72;;
19883;SDS011;10104;50.732;10.174;2022-08-21T14:24:05;4.03;;;2.70;;
19883;SDS011;10104;50.732;10.174;2022-08-21T14:26:34;5.20;;;2.63;;
19883;SDS011;10104;50.732;10.174;2022-08-21T14:28:58;6.43;;;2.63;;
19883;SDS011;10104;50.732;10.174;2022-08-21T14:31:21;6.18;;;3.00;;
19883;SDS011;10104;50.732;10.174;2022-08-21T14:33:43;6.75;;;2.83;;
19883;SDS011;10104;50.732;10.174;2022-08-21T14:36:05;5.03;;;2.67;;
19883;SDS011;10104;50.732;10.174;2022-08-21T14:38:27;3.67;;;2.65;;
19883;SDS011;10104;50.732;10.174;2022-08-21T14:40:50;5.13;;;2.85;;
19883;SDS011;10104;50.732;10.174;2022-08-21T14:43:13;6.85;;;2.78;;
19883;SDS011;10104;50.732;10.174;2022-08-21T14:45:35;4.75;;;2.30;;
19883;SDS011;10104;50.732;10.174;2022-08-21T14:47:58;7.43;;;2.75;;
19883;SDS011;10104;50.732;10.174;2022-08-21T14:50:20;5.40;;;2.45;;
19883;SDS011;10104;50.732;10.174;2022-08-21T14:52:41;4.97;;;2.67;;
19883;SDS011;10104;50.732;10.174;2022-08-21T14:55:04;6.78;;;2.75;;
19883;SDS011;10104;50.732;10.174;2022-08-21T14:57:27;5.07;;;2.72;;
19883;SDS011;10104;50.732;10.174;2022-08-21T14:59:51;3.35;;;2.55;;
19883;SDS011;10104;50.732;10.174;2022-08-21T15:02:13;5.35;;;2.83;;
19883;SDS011;10104;50.732;10.174;2022-08-21T15:04:34;6.32;;;3.13;;
19883;SDS011;10104;50.732;10.174;2022-08-21T15:06:56;5.28;;;2.67;;
19883;SDS011;10104;50.732;10.174;2022-08-21T15:09:18;5.03;;;2.80;;
19883;SDS011;10104;50.732;10.174;2022-08-21T15:11:39;3.80;;;2.58;;
19883;SDS011;10104;50.732;10.174;2022-08-21T15:14:03;4.25;;;2.70;;
19883;SDS011;10104;50.732;10.174;2022-08-21T15:16:29;6.95;;;2.67;;
19883;SDS011;10104;50.732;10.174;2022-08-21T15:18:54;5.63;;;2.85;;
19883;SDS011;10104;50.732;10.174;2022-08-21T15:21:15;3.60;;;2.50;;
19883;SDS011;10104;50.732;10.174;2022-08-21T15:23:37;4.43;;;2.47;;
19883;SDS011;10104;50.732;10.174;2022-08-21T15:26:04;4.65;;;2.53;;
19883;SDS011;10104;50.732;10.174;2022-08-21T15:28:26;3.47;;;2.35;;
19883;SDS011;10104;50.732;10.174;2022-08-21T15:30:51;2.95;;;2.35;;
19883;SDS011;10104;50.732;10.174;2022-08-21T15:33:13;3.70;;;2.50;;
19883;SDS011;10104;50.732;10.174;2022-08-21T15:35:35;5.13;;;2.53;;
19883;SDS011;10104;50.732;10.174;2022-08-21T15:38:01;4.35;;;2.22;;
19883;SDS011;10104;50.732;10.174;2022-08-21T15:40:23;5.20;;;2.10;;